sensor_id;sensor_type;location;lat;lon;timestamp;temperature;humidity
3602;DHT22;1815;50.950;6.920;2022-12-07T00:04:03;8.10;99.90
3602;DHT22;1815;50.950;6.920;2022-12-07T00:06:40;8.20;99.90
3602;DHT22;1815;50.950;6.920;2022-12-07T00:09:09;8.10;99.90
3602;DHT22;1815;50.950;6.920;2022-12-07T00:11:35;8.10;99.90
3602;DHT22;1815;50.950;6.920;2022-12-07T00:14:04;8.10;99.90
3602;DHT22;1815;50.950;6.920;2022-12-07T00:16:31;8.20;99.90
3602;DHT22;1815;50.950;6.920;2022-12-07T00:18:58;8.10;99.90
3602;DHT22;1815;50.950;6.920;2022-12-07T00:21:26;8.20;99.90
3602;DHT22;1815;50.950;6.920;2022-12-07T00:23:53;8.20;99.90
3602;DHT22;1815;50.950;6.920;2022-12-07T00:26:39;8.10;99.90
3602;DHT22;1815;50.950;6.920;2022-12-07T00:29:19;8.20;99.90
3602;DHT22;1815;50.950;6.920;2022-12-07T00:31:45;8.10;99.90
3602;DHT22;1815;50.950;6.920;2022-12-07T00:34:17;8.10;99.90
3602;DHT22;1815;50.950;6.920;2022-12-07T00:36:43;8.10;99.90
3602;DHT22;1815;50.950;6.920;2022-12-07T00:39:09;8.10;99.90
3602;DHT22;1815;50.950;6.920;2022-12-07T00:41:35;8.00;99.90
3602;DHT22;1815;50.950;6.920;2022-12-07T00:44:01;8.00;99.90
3602;DHT22;1815;50.950;6.920;2022-12-07T00:46:26;8.10;99.90
3602;DHT22;1815;50.950;6.920;2022-12-07T00:48:53;8.10;99.90
3602;DHT22;1815;50.950;6.920;2022-12-07T00:51:21;8.10;99.90
3602;DHT22;1815;50.950;6.920;2022-12-07T00:53:47;8.10;99.90
3602;DHT22;1815;50.950;6.920;2022-12-07T00:56:15;8.10;99.90
3602;DHT22;1815;50.950;6.920;2022-12-07T00:58:41;8.10;99.90
3602;DHT22;1815;50.950;6.920;2022-12-07T01:01:08;8.20;99.90
3602;DHT22;1815;50.950;6.920;2022-12-07T01:03:35;8.20;99.90
3602;DHT22;1815;50.950;6.920;2022-12-07T01:06:01;8.20;99.90
3602;DHT22;1815;50.950;6.920;2022-12-07T01:08:27;8.30;99.90
3602;DHT22;1815;50.950;6.920;2022-12-07T01:11:04;8.30;99.90
3602;DHT22;1815;50.950;6.920;2022-12-07T01:13:31;8.30;99.90
3602;DHT22;1815;50.950;6.920;2022-12-07T01:15:59;8.30;99.90
3602;DHT22;1815;50.950;6.920;2022-12-07T01:18:27;8.30;99.90
3602;DHT22;1815;50.950;6.920;2022-12-07T01:21:05;8.30;99.90
3602;DHT22;1815;50.950;6.920;2022-12-07T01:23:32;8.40;99.90
3602;DHT22;1815;50.950;6.920;2022-12-07T01:25:59;8.40;99.90
3602;DHT22;1815;50.950;6.920;2022-12-07T01:28:26;8.40;99.90
3602;DHT22;1815;50.950;6.920;2022-12-07T01:31:00;8.40;99.90
3602;DHT22;1815;50.950;6.920;2022-12-07T01:33:28;8.40;99.90
3602;DHT22;1815;50.950;6.920;2022-12-07T01:35:54;8.40;99.90
3602;DHT22;1815;50.950;6.920;2022-12-07T01:38:20;8.40;99.90
3602;DHT22;1815;50.950;6.920;2022-12-07T01:40:54;8.40;99.90
3602;DHT22;1815;50.950;6.920;2022-12-07T01:43:20;8.40;99.90
3602;DHT22;1815;50.950;6.920;2022-12-07T01:45:46;8.40;99.90
3602;DHT22;1815;50.950;6.920;2022-12-07T01:48:15;8.40;99.90
3602;DHT22;1815;50.950;6.920;2022-12-07T01:50:43;8.40;99.90
3602;DHT22;1815;50.950;6.920;2022-12-07T01:53:10;8.40;99.90
3602;DHT22;1815;50.950;6.920;2022-12-07T01:55:40;8.40;99.90
3602;DHT22;1815;50.950;6.920;2022-12-07T01:58:07;8.40;99.90
3602;DHT22;1815;50.950;6.920;2022-12-07T02:00:33;8.30;99.90
3602;DHT22;1815;50.950;6.920;2022-12-07T02:03:14;8.30;99.90
3602;DHT22;1815;50.950;6.920;2022-12-07T02:05:43;8.30;99.90
3602;DHT22;1815;50.950;6.920;2022-12-07T02:08:12;8.30;99.90
3602;DHT22;1815;50.950;6.920;2022-12-07T02:10:38;8.30;99.90
3602;DHT22;1815;50.950;6.920;2022-12-07T02:13:05;8.30;99.90
3602;DHT22;1815;50.950;6.920;2022-12-07T02:21:51;8.20;99.90
3602;DHT22;1815;50.950;6.920;2022-12-07T02:30:12;8.10;99.90
3602;DHT22;1815;50.950;6.920;2022-12-07T02:32:56;8.10;99.90
3602;DHT22;1815;50.950;6.920;2022-12-07T02:38:14;8.10;99.90
3602;DHT22;1815;50.950;6.920;2022-12-07T02:40:52;8.10;99.90
3602;DHT22;1815;50.950;6.920;2022-12-07T02:43:30;8.10;99.90
3602;DHT22;1815;50.950;6.920;2022-12-07T02:46:03;8.10;99.90
3602;DHT22;1815;50.950;6.920;2022-12-07T02:48:32;8.10;99.90
3602;DHT22;1815;50.950;6.920;2022-12-07T02:50:58;8.10;99.90
3602;DHT22;1815;50.950;6.920;2022-12-07T02:53:37;8.00;99.90
3602;DHT22;1815;50.950;6.920;2022-12-07T02:56:20;8.00;99.90
3602;DHT22;1815;50.950;6.920;2022-12-07T03:07:49;8.00;99.90
3602;DHT22;1815;50.950;6.920;2022-12-07T03:13:15;8.00;99.90
3602;DHT22;1815;50.950;6.920;2022-12-07T03:16:02;8.00;99.90
3602;DHT22;1815;50.950;6.920;2022-12-07T03:18:32;8.00;99.90
3602;DHT22;1815;50.950;6.920;2022-12-07T03:21:03;8.00;99.90
3602;DHT22;1815;50.950;6.920;2022-12-07T03:23:32;8.00;99.90
3602;DHT22;1815;50.950;6.920;2022-12-07T03:26:01;8.00;99.90
3602;DHT22;1815;50.950;6.920;2022-12-07T03:28:32;8.00;99.90
3602;DHT22;1815;50.950;6.920;2022-12-07T03:31:17;8.00;99.90
3602;DHT22;1815;50.950;6.920;2022-12-07T03:33:55;8.00;99.90
3602;DHT22;1815;50.950;6.920;2022-12-07T03:36:35;8.00;99.90
3602;DHT22;1815;50.950;6.920;2022-12-07T03:41:49;8.10;99.90
3602;DHT22;1815;50.950;6.920;2022-12-07T03:44:15;8.00;99.90
3602;DHT22;1815;50.950;6.920;2022-12-07T03:47:14;8.00;99.90
3602;DHT22;1815;50.950;6.920;2022-12-07T03:49:51;8.00;99.90
3602;DHT22;1815;50.950;6.920;2022-12-07T03:52:30;8.10;99.90
3602;DHT22;1815;50.950;6.920;2022-12-07T03:55:17;8.10;99.90
3602;DHT22;1815;50.950;6.920;2022-12-07T03:57:45;8.10;99.90
3602;DHT22;1815;50.950;6.920;2022-12-07T04:00:12;8.10;99.90
3602;DHT22;1815;50.950;6.920;2022-12-07T04:02:39;8.10;99.90
3602;DHT22;1815;50.950;6.920;2022-12-07T04:05:05;8.10;99.90
3602;DHT22;1815;50.950;6.920;2022-12-07T04:07:31;8.10;99.90
3602;DHT22;1815;50.950;6.920;2022-12-07T04:09:57;8.10;99.90
3602;DHT22;1815;50.950;6.920;2022-12-07T04:12:23;8.10;99.90
3602;DHT22;1815;50.950;6.920;2022-12-07T04:14:49;8.10;99.90
3602;DHT22;1815;50.950;6.920;2022-12-07T04:17:15;8.10;99.90
3602;DHT22;1815;50.950;6.920;2022-12-07T04:19:40;8.10;99.90
3602;DHT22;1815;50.950;6.920;2022-12-07T04:22:06;8.20;99.90
3602;DHT22;1815;50.950;6.920;2022-12-07T04:24:33;8.20;99.90
3602;DHT22;1815;50.950;6.920;2022-12-07T04:26:58;8.20;99.90
3602;DHT22;1815;50.950;6.920;2022-12-07T04:29:25;8.20;99.90
3602;DHT22;1815;50.950;6.920;2022-12-07T04:31:51;8.20;99.90
3602;DHT22;1815;50.950;6.920;2022-12-07T04:34:18;8.20;99.90
3602;DHT22;1815;50.950;6.920;2022-12-07T04:36:45;8.20;99.90
3602;DHT22;1815;50.950;6.920;2022-12-07T04:39:20;8.20;99.90
3602;DHT22;1815;50.950;6.920;2022-12-07T04:41:46;8.20;99.90
3602;DHT22;1815;50.950;6.920;2022-12-07T04:44:12;8.20;99.90
3602;DHT22;1815;50.950;6.920;2022-12-07T04:46:40;8.10;99.90
3602;DHT22;1815;50.950;6.920;2022-12-07T04:49:06;8.10;99.90
3602;DHT22;1815;50.950;6.920;2022-12-07T04:51:32;8.10;99.90
3602;DHT22;1815;50.950;6.920;2022-12-07T04:53:58;8.10;99.90
3602;DHT22;1815;50.950;6.920;2022-12-07T04:56:24;8.10;99.90
3602;DHT22;1815;50.950;6.920;2022-12-07T04:58:51;8.10;99.90
3602;DHT22;1815;50.950;6.920;2022-12-07T05:01:18;8.00;99.90
3602;DHT22;1815;50.950;6.920;2022-12-07T05:03:44;8.10;99.90
3602;DHT22;1815;50.950;6.920;2022-12-07T05:06:10;8.10;99.90
3602;DHT22;1815;50.950;6.920;2022-12-07T05:08:37;8.10;99.90
3602;DHT22;1815;50.950;6.920;2022-12-07T05:11:04;8.10;99.90
3602;DHT22;1815;50.950;6.920;2022-12-07T05:13:31;8.00;99.90
3602;DHT22;1815;50.950;6.920;2022-12-07T05:15:57;8.00;99.90
3602;DHT22;1815;50.950;6.920;2022-12-07T05:18:23;8.00;99.90
3602;DHT22;1815;50.950;6.920;2022-12-07T05:20:49;8.00;99.90
3602;DHT22;1815;50.950;6.920;2022-12-07T05:23:17;8.00;99.90
3602;DHT22;1815;50.950;6.920;2022-12-07T05:25:43;8.00;99.90
3602;DHT22;1815;50.950;6.920;2022-12-07T05:28:09;8.00;99.90
3602;DHT22;1815;50.950;6.920;2022-12-07T05:30:35;8.00;99.90
3602;DHT22;1815;50.950;6.920;2022-12-07T05:33:01;8.00;99.90
3602;DHT22;1815;50.950;6.920;2022-12-07T05:35:28;8.10;99.90
3602;DHT22;1815;50.950;6.920;2022-12-07T05:37:55;8.10;99.90
3602;DHT22;1815;50.950;6.920;2022-12-07T05:40:22;8.00;99.90
3602;DHT22;1815;50.950;6.920;2022-12-07T05:42:48;8.10;99.90
3602;DHT22;1815;50.950;6.920;2022-12-07T05:45:13;8.00;99.90
3602;DHT22;1815;50.950;6.920;2022-12-07T05:47:39;8.00;99.90
3602;DHT22;1815;50.950;6.920;2022-12-07T05:50:06;8.00;99.90
3602;DHT22;1815;50.950;6.920;2022-12-07T05:52:32;8.00;99.90
3602;DHT22;1815;50.950;6.920;2022-12-07T05:54:58;8.00;99.90
3602;DHT22;1815;50.950;6.920;2022-12-07T05:57:23;8.00;99.90
3602;DHT22;1815;50.950;6.920;2022-12-07T05:59:49;7.90;99.90
3602;DHT22;1815;50.950;6.920;2022-12-07T06:02:16;7.90;99.90
3602;DHT22;1815;50.950;6.920;2022-12-07T06:04:44;7.90;99.90
3602;DHT22;1815;50.950;6.920;2022-12-07T06:07:11;7.80;99.90
3602;DHT22;1815;50.950;6.920;2022-12-07T06:09:37;7.70;99.90
3602;DHT22;1815;50.950;6.920;2022-12-07T06:12:04;7.70;99.90
3602;DHT22;1815;50.950;6.920;2022-12-07T06:14:49;7.60;99.90
3602;DHT22;1815;50.950;6.920;2022-12-07T06:17:15;7.60;99.90
3602;DHT22;1815;50.950;6.920;2022-12-07T06:19:41;7.50;99.90
3602;DHT22;1815;50.950;6.920;2022-12-07T06:22:07;7.50;99.90
3602;DHT22;1815;50.950;6.920;2022-12-07T06:24:35;7.40;99.90
3602;DHT22;1815;50.950;6.920;2022-12-07T06:27:01;7.40;99.90
3602;DHT22;1815;50.950;6.920;2022-12-07T06:29:26;7.30;99.90
3602;DHT22;1815;50.950;6.920;2022-12-07T06:31:52;7.30;99.90
3602;DHT22;1815;50.950;6.920;2022-12-07T06:34:20;7.20;99.90
3602;DHT22;1815;50.950;6.920;2022-12-07T06:36:50;7.20;99.90
3602;DHT22;1815;50.950;6.920;2022-12-07T06:39:22;7.20;99.90
3602;DHT22;1815;50.950;6.920;2022-12-07T06:41:49;7.20;99.90
3602;DHT22;1815;50.950;6.920;2022-12-07T06:44:14;7.20;99.90
3602;DHT22;1815;50.950;6.920;2022-12-07T06:46:40;7.20;99.90
3602;DHT22;1815;50.950;6.920;2022-12-07T06:49:06;7.20;99.90
3602;DHT22;1815;50.950;6.920;2022-12-07T06:51:33;7.20;99.90
3602;DHT22;1815;50.950;6.920;2022-12-07T06:54:03;7.20;99.90
3602;DHT22;1815;50.950;6.920;2022-12-07T06:56:29;7.30;99.90
3602;DHT22;1815;50.950;6.920;2022-12-07T06:58:55;7.30;99.90
3602;DHT22;1815;50.950;6.920;2022-12-07T07:01:21;7.30;99.90
3602;DHT22;1815;50.950;6.920;2022-12-07T07:03:47;7.30;99.90
3602;DHT22;1815;50.950;6.920;2022-12-07T07:06:13;7.30;99.90
3602;DHT22;1815;50.950;6.920;2022-12-07T07:08:39;7.30;99.90
3602;DHT22;1815;50.950;6.920;2022-12-07T07:11:06;7.30;99.90
3602;DHT22;1815;50.950;6.920;2022-12-07T07:13:32;7.30;99.90
3602;DHT22;1815;50.950;6.920;2022-12-07T07:15:58;7.30;99.90
3602;DHT22;1815;50.950;6.920;2022-12-07T07:18:25;7.30;99.90
3602;DHT22;1815;50.950;6.920;2022-12-07T07:20:51;7.40;99.90
3602;DHT22;1815;50.950;6.920;2022-12-07T07:23:17;7.30;99.90
3602;DHT22;1815;50.950;6.920;2022-12-07T07:25:44;7.40;99.90
3602;DHT22;1815;50.950;6.920;2022-12-07T07:28:10;7.40;99.90
3602;DHT22;1815;50.950;6.920;2022-12-07T07:30:36;7.40;99.90
3602;DHT22;1815;50.950;6.920;2022-12-07T07:33:03;7.40;99.90
3602;DHT22;1815;50.950;6.920;2022-12-07T07:35:30;7.40;99.90
3602;DHT22;1815;50.950;6.920;2022-12-07T07:37:56;7.40;99.90
3602;DHT22;1815;50.950;6.920;2022-12-07T07:40:23;7.40;99.90
3602;DHT22;1815;50.950;6.920;2022-12-07T07:42:53;7.40;99.90
3602;DHT22;1815;50.950;6.920;2022-12-07T07:45:20;7.40;99.90
3602;DHT22;1815;50.950;6.920;2022-12-07T07:47:46;7.40;99.90
3602;DHT22;1815;50.950;6.920;2022-12-07T07:50:13;7.40;99.90
3602;DHT22;1815;50.950;6.920;2022-12-07T07:52:39;7.40;99.90
3602;DHT22;1815;50.950;6.920;2022-12-07T07:55:06;7.50;99.90
3602;DHT22;1815;50.950;6.920;2022-12-07T07:57:36;7.50;99.90
3602;DHT22;1815;50.950;6.920;2022-12-07T08:00:04;7.50;99.90
3602;DHT22;1815;50.950;6.920;2022-12-07T08:02:38;7.60;99.90
3602;DHT22;1815;50.950;6.920;2022-12-07T08:05:04;7.70;99.90
3602;DHT22;1815;50.950;6.920;2022-12-07T08:07:30;7.70;99.90
3602;DHT22;1815;50.950;6.920;2022-12-07T08:09:57;7.70;99.90
3602;DHT22;1815;50.950;6.920;2022-12-07T08:12:22;7.80;99.90
3602;DHT22;1815;50.950;6.920;2022-12-07T08:14:48;7.80;99.90
3602;DHT22;1815;50.950;6.920;2022-12-07T08:21:20;7.80;99.90
3602;DHT22;1815;50.950;6.920;2022-12-07T08:23:46;7.80;99.90
3602;DHT22;1815;50.950;6.920;2022-12-07T08:26:14;7.90;99.90
3602;DHT22;1815;50.950;6.920;2022-12-07T08:28:41;7.80;99.90
3602;DHT22;1815;50.950;6.920;2022-12-07T08:31:10;7.80;99.90
3602;DHT22;1815;50.950;6.920;2022-12-07T08:33:36;7.90;99.90
3602;DHT22;1815;50.950;6.920;2022-12-07T08:36:08;7.90;99.90
3602;DHT22;1815;50.950;6.920;2022-12-07T08:38:38;8.00;99.90
3602;DHT22;1815;50.950;6.920;2022-12-07T08:41:05;8.10;99.90
3602;DHT22;1815;50.950;6.920;2022-12-07T08:43:31;8.10;99.90
3602;DHT22;1815;50.950;6.920;2022-12-07T08:48:37;8.20;99.90
3602;DHT22;1815;50.950;6.920;2022-12-07T08:51:03;8.30;99.90
3602;DHT22;1815;50.950;6.920;2022-12-07T08:53:29;8.30;99.90
3602;DHT22;1815;50.950;6.920;2022-12-07T08:55:56;8.40;99.90
3602;DHT22;1815;50.950;6.920;2022-12-07T08:58:23;8.50;99.90
3602;DHT22;1815;50.950;6.920;2022-12-07T09:00:48;8.50;99.90
3602;DHT22;1815;50.950;6.920;2022-12-07T09:03:14;8.60;99.90
3602;DHT22;1815;50.950;6.920;2022-12-07T09:05:40;8.60;99.90
3602;DHT22;1815;50.950;6.920;2022-12-07T09:08:06;8.70;99.90
3602;DHT22;1815;50.950;6.920;2022-12-07T09:10:32;8.80;99.90
3602;DHT22;1815;50.950;6.920;2022-12-07T09:12:58;8.80;99.90
3602;DHT22;1815;50.950;6.920;2022-12-07T09:15:30;8.90;99.90
3602;DHT22;1815;50.950;6.920;2022-12-07T09:17:56;8.90;99.90
3602;DHT22;1815;50.950;6.920;2022-12-07T09:20:22;8.90;99.90
3602;DHT22;1815;50.950;6.920;2022-12-07T09:22:48;8.90;99.90
3602;DHT22;1815;50.950;6.920;2022-12-07T09:25:14;8.90;99.90
3602;DHT22;1815;50.950;6.920;2022-12-07T09:27:40;8.90;99.90
3602;DHT22;1815;50.950;6.920;2022-12-07T09:30:07;9.00;99.90
3602;DHT22;1815;50.950;6.920;2022-12-07T09:32:33;9.00;99.90
3602;DHT22;1815;50.950;6.920;2022-12-07T09:34:59;9.10;99.90
3602;DHT22;1815;50.950;6.920;2022-12-07T09:37:24;9.00;99.90
3602;DHT22;1815;50.950;6.920;2022-12-07T09:39:50;9.00;99.90
3602;DHT22;1815;50.950;6.920;2022-12-07T09:42:39;9.00;99.90
3602;DHT22;1815;50.950;6.920;2022-12-07T09:45:07;9.00;99.90
3602;DHT22;1815;50.950;6.920;2022-12-07T09:47:37;9.10;99.90
3602;DHT22;1815;50.950;6.920;2022-12-07T09:50:07;9.10;99.90
3602;DHT22;1815;50.950;6.920;2022-12-07T09:52:37;9.10;99.90
3602;DHT22;1815;50.950;6.920;2022-12-07T09:55:03;9.10;99.90
3602;DHT22;1815;50.950;6.920;2022-12-07T09:57:31;9.20;99.90
3602;DHT22;1815;50.950;6.920;2022-12-07T10:00:03;9.20;99.90
3602;DHT22;1815;50.950;6.920;2022-12-07T10:02:37;9.30;99.90
3602;DHT22;1815;50.950;6.920;2022-12-07T10:05:06;9.30;99.90
3602;DHT22;1815;50.950;6.920;2022-12-07T10:07:32;9.50;99.90
3602;DHT22;1815;50.950;6.920;2022-12-07T10:09:58;9.60;99.90
3602;DHT22;1815;50.950;6.920;2022-12-07T10:12:24;9.60;99.90
3602;DHT22;1815;50.950;6.920;2022-12-07T10:15:00;9.60;99.90
3602;DHT22;1815;50.950;6.920;2022-12-07T10:17:37;9.60;99.90
3602;DHT22;1815;50.950;6.920;2022-12-07T10:20:16;9.70;99.90
3602;DHT22;1815;50.950;6.920;2022-12-07T10:23:13;9.70;99.90
3602;DHT22;1815;50.950;6.920;2022-12-07T10:25:39;9.70;99.90
3602;DHT22;1815;50.950;6.920;2022-12-07T10:28:16;9.70;99.90
3602;DHT22;1815;50.950;6.920;2022-12-07T10:31:02;9.60;99.90
3602;DHT22;1815;50.950;6.920;2022-12-07T10:33:52;9.60;99.90
3602;DHT22;1815;50.950;6.920;2022-12-07T10:36:33;9.60;99.90
3602;DHT22;1815;50.950;6.920;2022-12-07T10:39:20;9.70;99.90
3602;DHT22;1815;50.950;6.920;2022-12-07T10:44:41;9.70;99.90
3602;DHT22;1815;50.950;6.920;2022-12-07T10:47:17;9.80;99.90
3602;DHT22;1815;50.950;6.920;2022-12-07T11:09:36;10.10;99.90
3602;DHT22;1815;50.950;6.920;2022-12-07T11:12:13;10.10;99.90
3602;DHT22;1815;50.950;6.920;2022-12-07T11:14:58;10.10;99.90
3602;DHT22;1815;50.950;6.920;2022-12-07T11:17:52;10.10;99.90
3602;DHT22;1815;50.950;6.920;2022-12-07T11:23:01;10.20;99.90
3602;DHT22;1815;50.950;6.920;2022-12-07T11:25:48;10.20;99.90
3602;DHT22;1815;50.950;6.920;2022-12-07T11:28:26;10.20;99.90
3602;DHT22;1815;50.950;6.920;2022-12-07T11:31:18;10.30;99.90
3602;DHT22;1815;50.950;6.920;2022-12-07T11:36:40;10.40;99.90
3602;DHT22;1815;50.950;6.920;2022-12-07T11:39:24;10.40;99.90
3602;DHT22;1815;50.950;6.920;2022-12-07T11:42:01;10.50;99.90
3602;DHT22;1815;50.950;6.920;2022-12-07T11:45:00;10.40;99.90
3602;DHT22;1815;50.950;6.920;2022-12-07T11:53:01;10.30;99.90
3602;DHT22;1815;50.950;6.920;2022-12-07T11:55:52;10.30;99.90
3602;DHT22;1815;50.950;6.920;2022-12-07T11:58:35;10.20;99.90
3602;DHT22;1815;50.950;6.920;2022-12-07T12:06:31;10.00;99.90
3602;DHT22;1815;50.950;6.920;2022-12-07T12:09:16;9.90;99.90
3602;DHT22;1815;50.950;6.920;2022-12-07T12:23:14;9.60;99.90
3602;DHT22;1815;50.950;6.920;2022-12-07T12:25:45;9.60;99.90
3602;DHT22;1815;50.950;6.920;2022-12-07T12:28:50;9.50;99.90
3602;DHT22;1815;50.950;6.920;2022-12-07T12:33:54;9.30;99.90
3602;DHT22;1815;50.950;6.920;2022-12-07T12:39:08;9.30;99.90
3602;DHT22;1815;50.950;6.920;2022-12-07T12:58:37;9.50;99.90
3602;DHT22;1815;50.950;6.920;2022-12-07T13:04:01;9.60;99.90
3602;DHT22;1815;50.950;6.920;2022-12-07T13:08:56;9.70;99.90
3602;DHT22;1815;50.950;6.920;2022-12-07T13:11:33;9.70;99.90
3602;DHT22;1815;50.950;6.920;2022-12-07T13:20:03;9.60;99.90
3602;DHT22;1815;50.950;6.920;2022-12-07T13:27:37;9.50;99.90
3602;DHT22;1815;50.950;6.920;2022-12-07T13:30:15;9.50;99.90
3602;DHT22;1815;50.950;6.920;2022-12-07T13:32:41;9.50;99.90
3602;DHT22;1815;50.950;6.920;2022-12-07T13:35:36;9.50;99.90
3602;DHT22;1815;50.950;6.920;2022-12-07T13:38:32;9.50;99.90
3602;DHT22;1815;50.950;6.920;2022-12-07T13:41:02;9.60;99.90
3602;DHT22;1815;50.950;6.920;2022-12-07T13:43:28;9.60;99.90
3602;DHT22;1815;50.950;6.920;2022-12-07T13:46:00;9.60;99.90
3602;DHT22;1815;50.950;6.920;2022-12-07T13:48:33;9.60;99.90
3602;DHT22;1815;50.950;6.920;2022-12-07T13:51:03;9.70;99.90
3602;DHT22;1815;50.950;6.920;2022-12-07T13:53:29;9.70;99.90
3602;DHT22;1815;50.950;6.920;2022-12-07T13:56:00;9.70;99.90
3602;DHT22;1815;50.950;6.920;2022-12-07T13:58:29;9.80;99.90
3602;DHT22;1815;50.950;6.920;2022-12-07T14:00:56;9.80;99.90
3602;DHT22;1815;50.950;6.920;2022-12-07T14:03:28;9.80;99.90
3602;DHT22;1815;50.950;6.920;2022-12-07T14:06:27;9.80;99.90
3602;DHT22;1815;50.950;6.920;2022-12-07T14:09:18;9.80;99.90
3602;DHT22;1815;50.950;6.920;2022-12-07T14:11:46;9.80;99.90
3602;DHT22;1815;50.950;6.920;2022-12-07T14:14:23;9.90;99.90
3602;DHT22;1815;50.950;6.920;2022-12-07T14:17:15;9.90;99.90
3602;DHT22;1815;50.950;6.920;2022-12-07T14:19:51;9.80;99.90
3602;DHT22;1815;50.950;6.920;2022-12-07T14:22:38;9.90;99.90
3602;DHT22;1815;50.950;6.920;2022-12-07T14:27:49;9.90;99.90
3602;DHT22;1815;50.950;6.920;2022-12-07T14:30:17;9.90;99.90
3602;DHT22;1815;50.950;6.920;2022-12-07T14:32:43;9.90;99.90
3602;DHT22;1815;50.950;6.920;2022-12-07T14:35:16;9.80;99.90
3602;DHT22;1815;50.950;6.920;2022-12-07T14:37:45;9.80;99.90
3602;DHT22;1815;50.950;6.920;2022-12-07T14:40:23;9.80;99.90
3602;DHT22;1815;50.950;6.920;2022-12-07T14:42:52;9.80;99.90
3602;DHT22;1815;50.950;6.920;2022-12-07T14:45:21;9.80;99.90
3602;DHT22;1815;50.950;6.920;2022-12-07T14:47:47;9.70;99.90
3602;DHT22;1815;50.950;6.920;2022-12-07T14:50:15;9.70;99.90
3602;DHT22;1815;50.950;6.920;2022-12-07T14:52:43;9.70;99.90
3602;DHT22;1815;50.950;6.920;2022-12-07T14:55:26;9.70;99.90
3602;DHT22;1815;50.950;6.920;2022-12-07T14:57:52;9.60;99.90
3602;DHT22;1815;50.950;6.920;2022-12-07T15:00:19;9.60;99.90
3602;DHT22;1815;50.950;6.920;2022-12-07T15:02:47;9.60;99.90
3602;DHT22;1815;50.950;6.920;2022-12-07T15:05:13;9.60;99.90
3602;DHT22;1815;50.950;6.920;2022-12-07T15:07:39;9.50;99.90
3602;DHT22;1815;50.950;6.920;2022-12-07T15:10:08;9.50;99.90
3602;DHT22;1815;50.950;6.920;2022-12-07T15:12:38;9.50;99.90
3602;DHT22;1815;50.950;6.920;2022-12-07T15:15:10;9.40;99.90
3602;DHT22;1815;50.950;6.920;2022-12-07T15:17:42;9.40;99.90
3602;DHT22;1815;50.950;6.920;2022-12-07T15:20:12;9.30;99.90
3602;DHT22;1815;50.950;6.920;2022-12-07T15:22:38;9.30;99.90
3602;DHT22;1815;50.950;6.920;2022-12-07T15:25:04;9.20;99.90
3602;DHT22;1815;50.950;6.920;2022-12-07T15:27:31;9.20;99.90
3602;DHT22;1815;50.950;6.920;2022-12-07T15:29:57;9.00;99.90
3602;DHT22;1815;50.950;6.920;2022-12-07T15:32:23;8.90;99.90
3602;DHT22;1815;50.950;6.920;2022-12-07T15:34:49;8.80;99.90
3602;DHT22;1815;50.950;6.920;2022-12-07T15:37:15;8.70;99.90
3602;DHT22;1815;50.950;6.920;2022-12-07T15:39:42;8.60;99.90
3602;DHT22;1815;50.950;6.920;2022-12-07T15:42:07;8.50;99.90
3602;DHT22;1815;50.950;6.920;2022-12-07T15:44:33;8.40;99.90
3602;DHT22;1815;50.950;6.920;2022-12-07T15:47:17;8.40;99.90
3602;DHT22;1815;50.950;6.920;2022-12-07T15:49:43;8.30;99.90
3602;DHT22;1815;50.950;6.920;2022-12-07T15:52:09;8.30;99.90
3602;DHT22;1815;50.950;6.920;2022-12-07T15:54:35;8.20;99.90
3602;DHT22;1815;50.950;6.920;2022-12-07T15:57:01;8.20;99.90
3602;DHT22;1815;50.950;6.920;2022-12-07T15:59:28;8.10;99.90
3602;DHT22;1815;50.950;6.920;2022-12-07T16:01:54;8.10;99.90
3602;DHT22;1815;50.950;6.920;2022-12-07T16:04:20;8.00;99.90
3602;DHT22;1815;50.950;6.920;2022-12-07T16:06:46;7.90;99.90
3602;DHT22;1815;50.950;6.920;2022-12-07T16:09:11;7.90;99.90
3602;DHT22;1815;50.950;6.920;2022-12-07T16:11:38;7.80;99.90
3602;DHT22;1815;50.950;6.920;2022-12-07T16:14:03;7.70;99.90
3602;DHT22;1815;50.950;6.920;2022-12-07T16:16:29;7.70;99.90
3602;DHT22;1815;50.950;6.920;2022-12-07T16:18:57;7.60;99.90
3602;DHT22;1815;50.950;6.920;2022-12-07T16:21:23;7.50;99.90
3602;DHT22;1815;50.950;6.920;2022-12-07T16:23:48;7.50;99.90
3602;DHT22;1815;50.950;6.920;2022-12-07T16:26:16;7.50;99.90
3602;DHT22;1815;50.950;6.920;2022-12-07T16:28:43;7.40;99.90
3602;DHT22;1815;50.950;6.920;2022-12-07T16:31:12;7.40;99.90
3602;DHT22;1815;50.950;6.920;2022-12-07T16:33:40;7.40;99.90
3602;DHT22;1815;50.950;6.920;2022-12-07T16:36:07;7.40;99.90
3602;DHT22;1815;50.950;6.920;2022-12-07T16:38:34;7.40;99.90
3602;DHT22;1815;50.950;6.920;2022-12-07T16:41:01;7.40;99.90
3602;DHT22;1815;50.950;6.920;2022-12-07T16:43:26;7.40;99.90
3602;DHT22;1815;50.950;6.920;2022-12-07T16:45:52;7.40;99.90
3602;DHT22;1815;50.950;6.920;2022-12-07T16:48:18;7.40;99.90
3602;DHT22;1815;50.950;6.920;2022-12-07T16:50:45;7.50;99.90
3602;DHT22;1815;50.950;6.920;2022-12-07T16:53:11;7.50;99.90
3602;DHT22;1815;50.950;6.920;2022-12-07T16:55:38;7.50;99.90
3602;DHT22;1815;50.950;6.920;2022-12-07T16:58:05;7.50;99.90
3602;DHT22;1815;50.950;6.920;2022-12-07T17:00:30;7.50;99.90
3602;DHT22;1815;50.950;6.920;2022-12-07T17:02:56;7.60;99.90
3602;DHT22;1815;50.950;6.920;2022-12-07T17:05:22;7.50;99.90
3602;DHT22;1815;50.950;6.920;2022-12-07T17:07:49;7.60;99.90
3602;DHT22;1815;50.950;6.920;2022-12-07T17:10:14;7.60;99.90
3602;DHT22;1815;50.950;6.920;2022-12-07T17:12:40;7.60;99.90
3602;DHT22;1815;50.950;6.920;2022-12-07T17:15:06;7.70;99.90
3602;DHT22;1815;50.950;6.920;2022-12-07T17:17:58;7.70;99.90
3602;DHT22;1815;50.950;6.920;2022-12-07T17:20:26;7.70;99.90
3602;DHT22;1815;50.950;6.920;2022-12-07T17:22:52;7.70;99.90
3602;DHT22;1815;50.950;6.920;2022-12-07T17:25:19;7.80;99.90
3602;DHT22;1815;50.950;6.920;2022-12-07T17:27:45;7.80;99.90
3602;DHT22;1815;50.950;6.920;2022-12-07T17:30:12;7.80;99.90
3602;DHT22;1815;50.950;6.920;2022-12-07T17:32:39;7.80;99.90
3602;DHT22;1815;50.950;6.920;2022-12-07T17:35:05;7.80;99.90
3602;DHT22;1815;50.950;6.920;2022-12-07T17:37:32;7.80;99.90
3602;DHT22;1815;50.950;6.920;2022-12-07T17:39:57;7.80;99.90
3602;DHT22;1815;50.950;6.920;2022-12-07T17:42:24;7.90;99.90
3602;DHT22;1815;50.950;6.920;2022-12-07T17:45:08;7.90;99.90
3602;DHT22;1815;50.950;6.920;2022-12-07T17:47:38;7.90;99.90
3602;DHT22;1815;50.950;6.920;2022-12-07T17:50:05;7.90;99.90
3602;DHT22;1815;50.950;6.920;2022-12-07T17:52:51;7.90;99.90
3602;DHT22;1815;50.950;6.920;2022-12-07T17:55:35;7.90;99.90
3602;DHT22;1815;50.950;6.920;2022-12-07T17:58:02;8.00;99.90
3602;DHT22;1815;50.950;6.920;2022-12-07T18:00:27;8.00;99.90
3602;DHT22;1815;50.950;6.920;2022-12-07T18:02:54;8.00;99.90
3602;DHT22;1815;50.950;6.920;2022-12-07T18:05:20;8.00;99.90
3602;DHT22;1815;50.950;6.920;2022-12-07T18:07:46;8.10;99.90
3602;DHT22;1815;50.950;6.920;2022-12-07T18:10:12;8.10;99.90
3602;DHT22;1815;50.950;6.920;2022-12-07T18:12:38;8.10;99.90
3602;DHT22;1815;50.950;6.920;2022-12-07T18:15:07;8.10;99.90
3602;DHT22;1815;50.950;6.920;2022-12-07T18:17:33;8.10;99.90
3602;DHT22;1815;50.950;6.920;2022-12-07T18:19:58;8.10;99.90
3602;DHT22;1815;50.950;6.920;2022-12-07T18:22:24;8.10;99.90
3602;DHT22;1815;50.950;6.920;2022-12-07T18:24:50;8.20;99.90
3602;DHT22;1815;50.950;6.920;2022-12-07T18:27:15;8.10;99.90
3602;DHT22;1815;50.950;6.920;2022-12-07T18:29:41;8.10;99.90
3602;DHT22;1815;50.950;6.920;2022-12-07T18:32:07;8.20;99.90
3602;DHT22;1815;50.950;6.920;2022-12-07T18:34:33;8.20;99.90
3602;DHT22;1815;50.950;6.920;2022-12-07T18:36:59;8.20;99.90
3602;DHT22;1815;50.950;6.920;2022-12-07T18:39:25;8.20;99.90
3602;DHT22;1815;50.950;6.920;2022-12-07T18:41:51;8.30;99.90
3602;DHT22;1815;50.950;6.920;2022-12-07T18:44:16;8.20;99.90